<?xml version='1.0' encoding='UTF-8'?><gpx version="1.1" creator="JPX - https://github.com/jenetics/jpx" xmlns="http://www.topografix.com/GPX/1/1"><trk><trkseg><trkpt lat="45.96084905320093" lon="9.309799537758721"><ele>313.0</ele><time>2026-04-27T10:54:36.001Z</time></trkpt><trkpt lat="45.960724233466486" lon="9.30982198730676"><ele>313.0</ele><time>2026-04-27T10:54:38.001Z</time></trkpt><trkpt lat="45.96065812816991" lon="9.309832255643583"><ele>313.0</ele><time>2026-04-27T10:54:39.001Z</time></trkpt><trkpt lat="45.960570370636404" lon="9.3098532686904"><ele>313.0</ele><time>2026-04-27T10:54:40.001Z</time></trkpt><trkpt lat="45.96049087260446" lon="9.309887553053025"><ele>313.0</ele><time>2026-04-27T10:54:41.001Z</time></trkpt><trkpt lat="45.960404312874616" lon="9.309969506528597"><ele>313.0</ele><time>2026-04-27T10:54:42.001Z</time></trkpt><trkpt lat="45.960308731398385" lon="9.3100105025388"><ele>313.0</ele><time>2026-04-27T10:54:43Z</time></trkpt><trkpt lat="45.96021974598459" lon="9.310017333374491"><ele>313.0</ele><time>2026-04-27T10:54:44Z</time></trkpt><trkpt lat="45.960137561801915" lon="9.31001810426984"><ele>313.0</ele><time>2026-04-27T10:54:45Z</time></trkpt><trkpt lat="45.96003126629477" lon="9.310003459079885"><ele>313.0</ele><time>2026-04-27T10:54:46Z</time></trkpt><trkpt lat="45.95991711946002" lon="9.309990439275355"><ele>311.66666666666663</ele><time>2026-04-27T10:54:47Z</time></trkpt><trkpt lat="45.959817857395734" lon="9.3099738645716"><ele>310.3333333333333</ele><time>2026-04-27T10:54:48Z</time></trkpt><trkpt lat="45.95972848162528" lon="9.309981996121387"><ele>309.0</ele><time>2026-04-27T10:54:49Z</time></trkpt><trkpt lat="45.9596440297645" lon="9.310011548781464"><ele>307.6666666666667</ele><time>2026-04-27T10:54:50Z</time></trkpt><trkpt lat="45.95957223020304" lon="9.310055696450387"><ele>306.33333333333337</ele><time>2026-04-27T10:54:51Z</time></trkpt><trkpt lat="45.95949518553881" lon="9.310092420814993"><ele>305.0</ele><time>2026-04-27T10:54:52Z</time></trkpt><trkpt lat="45.9594298291655" lon="9.31012471256079"><ele>305.0</ele><time>2026-04-27T10:54:53Z</time></trkpt><trkpt lat="45.95932859122087" lon="9.310157950197409"><ele>305.0</ele><time>2026-04-27T10:54:55Z</time></trkpt><trkpt lat="45.959250397288905" lon="9.31021834109294"><ele>305.0</ele><time>2026-04-27T10:54:58Z</time></trkpt><trkpt lat="45.95923700786204" lon="9.310355107476983"><ele>305.0</ele><time>2026-04-27T10:55:00Z</time></trkpt><trkpt lat="45.95923664345063" lon="9.310489576663285"><ele>305.0</ele><time>2026-04-27T10:55:02Z</time></trkpt><trkpt lat="45.95922224444318" lon="9.310595157521039"><ele>308.2</ele><time>2026-04-27T10:55:04Z</time></trkpt><trkpt lat="45.95913351095349" lon="9.310639890051021"><ele>311.4</ele><time>2026-04-27T10:55:06Z</time></trkpt><trkpt lat="45.959046403641366" lon="9.31071175345762"><ele>314.6</ele><time>2026-04-27T10:55:08Z</time></trkpt><trkpt lat="45.95895049964731" lon="9.310743848032727"><ele>317.8</ele><time>2026-04-27T10:55:10Z</time></trkpt><trkpt lat="45.95885172088196" lon="9.310783942990007"><ele>321.0</ele><time>2026-04-27T10:55:12Z</time></trkpt><trkpt lat="45.958784811227886" lon="9.310887145686245"><ele>321.0</ele><time>2026-04-27T10:55:14Z</time></trkpt><trkpt lat="45.95874603355578" lon="9.310966917353646"><ele>321.0</ele><time>2026-04-27T10:55:15Z</time></trkpt><trkpt lat="45.95873227694702" lon="9.311056221672327"><ele>321.0</ele><time>2026-04-27T10:55:16Z</time></trkpt><trkpt lat="45.95879476142099" lon="9.311220599998629"><ele>321.0</ele><time>2026-04-27T10:55:18Z</time></trkpt><trkpt lat="45.95877631607621" lon="9.311313839139602"><ele>321.0</ele><time>2026-04-27T10:55:20Z</time></trkpt><trkpt lat="45.95870165174129" lon="9.311360844225401"><ele>321.0</ele><time>2026-04-27T10:55:24.013Z</time></trkpt><trkpt lat="45.95865289062235" lon="9.31144676381101"><ele>329.5</ele><time>2026-04-27T10:55:27.017Z</time></trkpt><trkpt lat="45.95851878174204" lon="9.311922434726089"><ele>338.0</ele><time>2026-04-27T10:55:30Z</time></trkpt><trkpt lat="45.9582973928506" lon="9.311954019189267"><ele>338.0</ele><time>2026-04-27T10:55:32Z</time></trkpt><trkpt lat="45.958214450541476" lon="9.311984461711514"><ele>338.0</ele><time>2026-04-27T10:55:34Z</time></trkpt><trkpt lat="45.958123138000985" lon="9.312050989816317"><ele>338.0</ele><time>2026-04-27T10:55:36Z</time></trkpt><trkpt lat="45.958012603923734" lon="9.312119432386305"><ele>338.0</ele><time>2026-04-27T10:55:38Z</time></trkpt><trkpt lat="45.957929962455744" lon="9.312147453159291"><ele>338.0</ele><time>2026-04-27T10:55:40Z</time></trkpt><trkpt lat="45.957925258057244" lon="9.31227680057739"><ele>341.2</ele><time>2026-04-27T10:55:42Z</time></trkpt><trkpt lat="45.95794258853831" lon="9.312395413034437"><ele>344.4</ele><time>2026-04-27T10:55:44Z</time></trkpt><trkpt lat="45.957922423973805" lon="9.312506267501858"><ele>347.59999999999997</ele><time>2026-04-27T10:55:46Z</time></trkpt><trkpt lat="45.95788291417907" lon="9.312650051700096"><ele>350.79999999999995</ele><time>2026-04-27T10:55:48.001Z</time></trkpt><trkpt lat="45.95793745586049" lon="9.312759381376017"><ele>354.0</ele><time>2026-04-27T10:55:50.001Z</time></trkpt><trkpt lat="45.95795883730216" lon="9.312888348225739"><ele>354.0</ele><time>2026-04-27T10:55:53.001Z</time></trkpt><trkpt lat="45.95788047925058" lon="9.312977925275517"><ele>354.0</ele><time>2026-04-27T10:55:55.001Z</time></trkpt><trkpt lat="45.957805123847535" lon="9.313029604947058"><ele>354.0</ele><time>2026-04-27T10:55:57.001Z</time></trkpt><trkpt lat="45.957749976087506" lon="9.312983505950545"><ele>354.0</ele><time>2026-04-27T10:57:23Z</time></trkpt><trkpt lat="45.95766121548617" lon="9.312967581956807"><ele>354.0</ele><time>2026-04-27T10:57:25Z</time></trkpt><trkpt lat="45.957567291217494" lon="9.312975919303483"><ele>354.0</ele><time>2026-04-27T10:57:27Z</time></trkpt><trkpt lat="45.95746604388973" lon="9.312966092859009"><ele>354.5</ele><time>2026-04-27T10:57:29Z</time></trkpt><trkpt lat="45.95737193888767" lon="9.312940859295894"><ele>355.0</ele><time>2026-04-27T10:57:31Z</time></trkpt><trkpt lat="45.95729612614728" lon="9.312938825764542"><ele>355.5</ele><time>2026-04-27T10:57:33Z</time></trkpt><trkpt lat="45.9572205134062" lon="9.312949574432459"><ele>356.0</ele><time>2026-04-27T10:57:35Z</time></trkpt><trkpt lat="45.957124736918956" lon="9.312994085175418"><ele>356.5</ele><time>2026-04-27T10:57:38Z</time></trkpt><trkpt lat="45.95704763102247" lon="9.313015304580576"><ele>357.0</ele><time>2026-04-27T10:57:40Z</time></trkpt><trkpt lat="45.95697111604493" lon="9.313031480830455"><ele>357.0</ele><time>2026-04-27T10:57:42Z</time></trkpt><trkpt lat="45.9568861049034" lon="9.313030932546013"><ele>357.0</ele><time>2026-04-27T10:57:44Z</time></trkpt><trkpt lat="45.95677761935005" lon="9.31296461129068"><ele>357.0</ele><time>2026-04-27T10:57:46.001Z</time></trkpt><trkpt lat="45.95671409875535" lon="9.312921918125866"><ele>357.0</ele><time>2026-04-27T10:57:47.001Z</time></trkpt><trkpt lat="45.956631730758815" lon="9.312853801539802"><ele>357.0</ele><time>2026-04-27T10:57:49.001Z</time></trkpt><trkpt lat="45.95657568481429" lon="9.312753076240996"><ele>356.8333333333333</ele><time>2026-04-27T10:57:51.001Z</time></trkpt><trkpt lat="45.95649013660892" lon="9.312653323648464"><ele>356.6666666666667</ele><time>2026-04-27T10:57:53.001Z</time></trkpt><trkpt lat="45.95642191291113" lon="9.312635343027074"><ele>356.5</ele><time>2026-04-27T10:57:54.001Z</time></trkpt><trkpt lat="45.956348375500404" lon="9.312586155398654"><ele>356.33333333333337</ele><time>2026-04-27T10:57:55.001Z</time></trkpt><trkpt lat="45.95629670766235" lon="9.312639816613718"><ele>356.1666666666667</ele><time>2026-04-27T10:57:59.001Z</time></trkpt><trkpt lat="45.95624091184024" lon="9.312739622179786"><ele>356.0</ele><time>2026-04-27T10:58:02.001Z</time></trkpt><trkpt lat="45.95617531353101" lon="9.31278450419865"><ele>356.0</ele><time>2026-04-27T10:58:05.001Z</time></trkpt><trkpt lat="45.9561042731768" lon="9.312766940368201"><ele>356.0</ele><time>2026-04-27T10:58:07.001Z</time></trkpt><trkpt lat="45.956025469026876" lon="9.312783975995965"><ele>356.0</ele><time>2026-04-27T10:58:09.001Z</time></trkpt><trkpt lat="45.955948457341385" lon="9.312833157415787"><ele>356.0</ele><time>2026-04-27T10:58:11.001Z</time></trkpt><trkpt lat="45.955870465217934" lon="9.312896575782363"><ele>356.0</ele><time>2026-04-27T10:58:13.001Z</time></trkpt><trkpt lat="45.95577414272915" lon="9.312949876840378"><ele>356.0</ele><time>2026-04-27T10:58:16.001Z</time></trkpt><trkpt lat="45.955687590291426" lon="9.312992239237882"><ele>362.4</ele><time>2026-04-27T10:58:18.001Z</time></trkpt><trkpt lat="45.95560336057002" lon="9.313116531857922"><ele>368.8</ele><time>2026-04-27T10:58:20.001Z</time></trkpt><trkpt lat="45.95555733437074" lon="9.31323694039969"><ele>375.2</ele><time>2026-04-27T10:58:22.001Z</time></trkpt><trkpt lat="45.95550397710641" lon="9.313313121533868"><ele>381.59999999999997</ele><time>2026-04-27T10:58:24.001Z</time></trkpt><trkpt lat="45.95544551224901" lon="9.313367600428613"><ele>388.0</ele><time>2026-04-27T10:58:26.001Z</time></trkpt><trkpt lat="45.955326664705055" lon="9.313483798288472"><ele>388.00000000000006</ele><time>2026-04-27T10:58:28.001Z</time></trkpt><trkpt lat="45.9552943274623" lon="9.313606925693515"><ele>388.0</ele><time>2026-04-27T10:58:30.001Z</time></trkpt><trkpt lat="45.95523534290784" lon="9.31353406142917"><ele>388.0</ele><time>2026-04-27T10:58:36.001Z</time></trkpt><trkpt lat="45.95518585815732" lon="9.313454574925466"><ele>388.0</ele><time>2026-04-27T10:58:38.001Z</time></trkpt><trkpt lat="45.95513471589736" lon="9.313377686498011"><ele>388.00000000000006</ele><time>2026-04-27T10:58:40.001Z</time></trkpt><trkpt lat="45.95507724260991" lon="9.313280223258046"><ele>388.0</ele><time>2026-04-27T10:58:43.001Z</time></trkpt><trkpt lat="45.95500343108967" lon="9.313272655009605"><ele>383.79999999999995</ele><time>2026-04-27T10:58:45.001Z</time></trkpt><trkpt lat="45.95493322464531" lon="9.313323840012037"><ele>379.6</ele><time>2026-04-27T10:58:47.001Z</time></trkpt><trkpt lat="45.95483040817029" lon="9.313382237043152"><ele>375.4</ele><time>2026-04-27T10:58:49.001Z</time></trkpt><trkpt lat="45.95471392087938" lon="9.313431740327779"><ele>371.20000000000005</ele><time>2026-04-27T10:58:51.001Z</time></trkpt><trkpt lat="45.954637758208065" lon="9.313461326699327"><ele>367.0</ele><time>2026-04-27T10:58:53.001Z</time></trkpt><trkpt lat="45.95463071670536" lon="9.313560408125891"><ele>367.0</ele><time>2026-04-27T10:58:57Z</time></trkpt><trkpt lat="45.95464750368331" lon="9.313666026938053"><ele>367.0</ele><time>2026-04-27T10:58:59Z</time></trkpt><trkpt lat="45.95464954819738" lon="9.313786046213808"><ele>367.0</ele><time>2026-04-27T10:59:01Z</time></trkpt><trkpt lat="45.95468109380189" lon="9.313930806780899"><ele>367.0</ele><time>2026-04-27T10:59:02Z</time></trkpt><trkpt lat="45.95463943092141" lon="9.314092766909281"><ele>367.0</ele><time>2026-04-27T10:59:04Z</time></trkpt><trkpt lat="45.95465487507246" lon="9.314236563535205"><ele>369.66666666666663</ele><time>2026-04-27T10:59:06Z</time></trkpt><trkpt lat="45.95467450801333" lon="9.314358169457067"><ele>372.3333333333333</ele><time>2026-04-27T10:59:08Z</time></trkpt><trkpt lat="45.954682102259085" lon="9.314510127926544"><ele>375.0</ele><time>2026-04-27T10:59:10Z</time></trkpt><trkpt lat="45.95467955010214" lon="9.314613153732074"><ele>377.6666666666667</ele><time>2026-04-27T10:59:12Z</time></trkpt><trkpt lat="45.95469463660098" lon="9.314715279922334"><ele>380.33333333333337</ele><time>2026-04-27T10:59:13Z</time></trkpt><trkpt lat="45.95470386133961" lon="9.314813975741524"><ele>383.0</ele><time>2026-04-27T10:59:14Z</time></trkpt><trkpt lat="45.95470835056959" lon="9.314914677996796"><ele>385.0</ele><time>2026-04-27T10:59:15Z</time></trkpt><trkpt lat="45.95469373003703" lon="9.315008466071061"><ele>387.0</ele><time>2026-04-27T10:59:16Z</time></trkpt><trkpt lat="45.95470177852211" lon="9.315147108103922"><ele>389.0</ele><time>2026-04-27T10:59:18Z</time></trkpt><trkpt lat="45.95471685268572" lon="9.315305631733121"><ele>391.0</ele><time>2026-04-27T10:59:20Z</time></trkpt><trkpt lat="45.954729231123004" lon="9.315399624727554"><ele>392.99999999999994</ele><time>2026-04-27T10:59:21Z</time></trkpt><trkpt lat="45.95476928587212" lon="9.315537161425173"><ele>395.0</ele><time>2026-04-27T10:59:23Z</time></trkpt><trkpt lat="45.95481923844136" lon="9.31566032171798"><ele>397.8333333333333</ele><time>2026-04-27T10:59:25.001Z</time></trkpt><trkpt lat="45.95486109936632" lon="9.315751820116516"><ele>400.66666666666663</ele><time>2026-04-27T10:59:26.001Z</time></trkpt><trkpt lat="45.95490052203745" lon="9.315827848005338"><ele>403.5</ele><time>2026-04-27T10:59:27.001Z</time></trkpt><trkpt lat="45.95495931248185" lon="9.315925428246205"><ele>406.33333333333337</ele><time>2026-04-27T10:59:29.001Z</time></trkpt><trkpt lat="45.95502825963899" lon="9.316033035092238"><ele>409.1666666666667</ele><time>2026-04-27T10:59:31.001Z</time></trkpt><trkpt lat="45.955111528743615" lon="9.316145676217458"><ele>412.0</ele><time>2026-04-27T10:59:33.001Z</time></trkpt><trkpt lat="45.955179135800506" lon="9.31625428219399"><ele>417.6</ele><time>2026-04-27T10:59:35.001Z</time></trkpt><trkpt lat="45.955242620842945" lon="9.316306234684536"><ele>423.20000000000005</ele><time>2026-04-27T10:59:37.001Z</time></trkpt><trkpt lat="45.955299092327444" lon="9.31635308798804"><ele>428.8</ele><time>2026-04-27T10:59:40.001Z</time></trkpt><trkpt lat="45.95542682864786" lon="9.316450776920444"><ele>434.4</ele><time>2026-04-27T10:59:41.001Z</time></trkpt><trkpt lat="45.95557264172298" lon="9.316350868167648"><ele>440.0</ele><time>2026-04-27T10:59:42.001Z</time></trkpt><trkpt lat="45.95563035775214" lon="9.316225469153212"><ele>440.0</ele><time>2026-04-27T10:59:43.001Z</time></trkpt><trkpt lat="45.95567355069958" lon="9.316110427520863"><ele>440.0</ele><time>2026-04-27T10:59:44.001Z</time></trkpt><trkpt lat="45.95540923368931" lon="9.316072222890272"><ele>440.0</ele><time>2026-04-27T10:59:48.001Z</time></trkpt><trkpt lat="45.95544450726815" lon="9.315803376041085"><ele>440.0</ele><time>2026-04-27T10:59:49.001Z</time></trkpt><trkpt lat="45.955560242895054" lon="9.315744780696969"><ele>440.0</ele><time>2026-04-27T10:59:50.001Z</time></trkpt><trkpt lat="45.9554487571824" lon="9.31583598254397"><ele>440.0</ele><time>2026-04-27T10:59:51.001Z</time></trkpt><trkpt lat="45.95539551171985" lon="9.316083398134989"><ele>440.0</ele><time>2026-04-27T10:59:52.001Z</time></trkpt><trkpt lat="45.955454140929604" lon="9.3160380767368"><ele>439.99999999999994</ele><time>2026-04-27T11:00:06.001Z</time></trkpt><trkpt lat="45.95544622394602" lon="9.31615328387694"><ele>440.0</ele><time>2026-04-27T11:01:04.001Z</time></trkpt><trkpt lat="45.95548194845632" lon="9.31627558904259"><ele>440.0</ele><time>2026-04-27T11:01:06.001Z</time></trkpt><trkpt lat="45.95550150642818" lon="9.316371858312579"><ele>440.0</ele><time>2026-04-27T11:01:07.001Z</time></trkpt><trkpt lat="45.955559708007584" lon="9.316457786078457"><ele>439.99999999999994</ele><time>2026-04-27T11:01:09.001Z</time></trkpt><trkpt lat="45.95562280889889" lon="9.316474074011133"><ele>440.0</ele><time>2026-04-27T11:01:10.001Z</time></trkpt><trkpt lat="45.955711619871856" lon="9.316432808984539"><ele>440.0</ele><time>2026-04-27T11:01:12.001Z</time></trkpt><trkpt lat="45.955697542763076" lon="9.316214865464469"><ele>440.0</ele><time>2026-04-27T11:01:14.001Z</time></trkpt><trkpt lat="45.955672631387266" lon="9.316111728612592"><ele>440.0</ele><time>2026-04-27T11:01:15.001Z</time></trkpt><trkpt lat="45.955666909046" lon="9.315965844331174"><ele>440.0</ele><time>2026-04-27T11:01:18.001Z</time></trkpt><trkpt lat="45.95574038078264" lon="9.315875152750179"><ele>440.0</ele><time>2026-04-27T11:01:20.001Z</time></trkpt><trkpt lat="45.9558165684077" lon="9.315875262132133"><ele>439.99999999999994</ele><time>2026-04-27T11:01:22.001Z</time></trkpt><trkpt lat="45.955869960700916" lon="9.315998470730085"><ele>440.0</ele><time>2026-04-27T11:01:24.001Z</time></trkpt><trkpt lat="45.95594004793393" lon="9.316103671390554"><ele>440.0</ele><time>2026-04-27T11:01:26.001Z</time></trkpt><trkpt lat="45.9560306802536" lon="9.316143214221883"><ele>440.0</ele><time>2026-04-27T11:01:28.001Z</time></trkpt><trkpt lat="45.956093132682824" lon="9.316118376013442"><ele>439.99999999999994</ele><time>2026-04-27T11:01:31.001Z</time></trkpt><trkpt lat="45.95609936124463" lon="9.316223653540549"><ele>440.0</ele><time>2026-04-27T11:01:38.001Z</time></trkpt><trkpt lat="45.95614915980466" lon="9.316303243487761"><ele>439.99999999999994</ele><time>2026-04-27T11:01:41.001Z</time></trkpt><trkpt lat="45.95623752156206" lon="9.3162891631832"><ele>440.0</ele><time>2026-04-27T11:01:46.001Z</time></trkpt><trkpt lat="45.956305024351664" lon="9.316295350031503"><ele>440.0</ele><time>2026-04-27T11:01:49.001Z</time></trkpt><trkpt lat="45.95637881437973" lon="9.316308648414685"><ele>440.0</ele><time>2026-04-27T11:01:52.001Z</time></trkpt><trkpt lat="45.95644855674495" lon="9.316302234983736"><ele>440.0</ele><time>2026-04-27T11:01:55.001Z</time></trkpt><trkpt lat="45.95651341274363" lon="9.316332903450755"><ele>439.99999999999994</ele><time>2026-04-27T11:02:18.001Z</time></trkpt><trkpt lat="45.956542544816514" lon="9.316239843702968"><ele>440.0</ele><time>2026-04-27T11:02:23.001Z</time></trkpt><trkpt lat="45.95648465162042" lon="9.31627798764733"><ele>439.99999999999994</ele><time>2026-04-27T11:03:22Z</time></trkpt><trkpt lat="45.95642837526897" lon="9.316205471701647"><ele>440.0</ele><time>2026-04-27T11:03:54Z</time></trkpt><trkpt lat="45.956316558279504" lon="9.316184389474321"><ele>440.0</ele><time>2026-04-27T11:03:56Z</time></trkpt><trkpt lat="45.956211481186884" lon="9.316160763340704"><ele>440.0</ele><time>2026-04-27T11:03:58Z</time></trkpt><trkpt lat="45.95613498206713" lon="9.316175095437371"><ele>439.99999999999994</ele><time>2026-04-27T11:04:00Z</time></trkpt><trkpt lat="45.956086460162204" lon="9.316094470771686"><ele>440.0</ele><time>2026-04-27T11:04:05Z</time></trkpt><trkpt lat="45.956010699324224" lon="9.316059929565217"><ele>439.99999999999994</ele><time>2026-04-27T11:04:09.001Z</time></trkpt><trkpt lat="45.95593858138512" lon="9.31604025243923"><ele>440.0</ele><time>2026-04-27T11:04:11.001Z</time></trkpt><trkpt lat="45.95587617951062" lon="9.316006600218936"><ele>440.0</ele><time>2026-04-27T11:04:14.001Z</time></trkpt><trkpt lat="45.95579924362408" lon="9.315922035783212"><ele>440.0</ele><time>2026-04-27T11:04:17.001Z</time></trkpt><trkpt lat="45.95572561943579" lon="9.315853118539591"><ele>439.99999999999994</ele><time>2026-04-27T11:04:20.001Z</time></trkpt><trkpt lat="45.95568625430105" lon="9.31596616985144"><ele>440.0</ele><time>2026-04-27T11:04:23.001Z</time></trkpt><trkpt lat="45.95566506054435" lon="9.316082877371464"><ele>439.99999999999994</ele><time>2026-04-27T11:04:25.001Z</time></trkpt><trkpt lat="45.95568608518232" lon="9.31617170264068"><ele>440.0</ele><time>2026-04-27T11:04:28.001Z</time></trkpt><trkpt lat="45.95568550452219" lon="9.316276802968746"><ele>440.0</ele><time>2026-04-27T11:04:31.001Z</time></trkpt><trkpt lat="45.95560696671531" lon="9.31633322987201"><ele>440.0</ele><time>2026-04-27T11:04:34.001Z</time></trkpt><trkpt lat="45.95554937626027" lon="9.31627599427076"><ele>439.99999999999994</ele><time>2026-04-27T11:04:36.001Z</time></trkpt><trkpt lat="45.95546233189165" lon="9.316118017845712"><ele>440.0</ele><time>2026-04-27T11:04:38.001Z</time></trkpt><trkpt lat="45.955404400552354" lon="9.315968785552721"><ele>439.99999999999994</ele><time>2026-04-27T11:04:40.001Z</time></trkpt><trkpt lat="45.955336886702234" lon="9.3158853415743"><ele>440.0</ele><time>2026-04-27T11:04:42.001Z</time></trkpt><trkpt lat="45.95528407749756" lon="9.315972110882173"><ele>440.0</ele><time>2026-04-27T11:04:46.001Z</time></trkpt><trkpt lat="45.955308031804506" lon="9.316075565012705"><ele>440.0</ele><time>2026-04-27T11:04:49.001Z</time></trkpt><trkpt lat="45.955294934505275" lon="9.316181126295454"><ele>439.99999999999994</ele><time>2026-04-27T11:04:54.001Z</time></trkpt><trkpt lat="45.95524373242229" lon="9.316119094822955"><ele>440.0</ele><time>2026-04-27T11:05:24Z</time></trkpt><trkpt lat="45.955204193631374" lon="9.316213857792928"><ele>439.99999999999994</ele><time>2026-04-27T11:05:28Z</time></trkpt><trkpt lat="45.95526048072811" lon="9.316339233235333"><ele>440.0</ele><time>2026-04-27T11:05:30Z</time></trkpt><trkpt lat="45.95533353243039" lon="9.316332626939005"><ele>440.0</ele><time>2026-04-27T11:05:32Z</time></trkpt><trkpt lat="45.955394901127136" lon="9.316196966264178"><ele>440.0</ele><time>2026-04-27T11:05:34Z</time></trkpt><trkpt lat="45.95538587734984" lon="9.3160932812034"><ele>439.99999999999994</ele><time>2026-04-27T11:05:35Z</time></trkpt><trkpt lat="45.9553576307239" lon="9.316008679626199"><ele>440.0</ele><time>2026-04-27T11:05:36Z</time></trkpt><trkpt lat="45.95533470400393" lon="9.315921823499266"><ele>440.0</ele><time>2026-04-27T11:05:38Z</time></trkpt><trkpt lat="45.95541302641154" lon="9.315993395777507"><ele>440.0</ele><time>2026-04-27T11:05:41Z</time></trkpt><trkpt lat="45.95546296698426" lon="9.316121914358106"><ele>440.0</ele><time>2026-04-27T11:05:43Z</time></trkpt><trkpt lat="45.95550093421064" lon="9.316241814043984"><ele>440.0</ele><time>2026-04-27T11:05:45Z</time></trkpt><trkpt lat="45.955540622921326" lon="9.316376269650748"><ele>440.0</ele><time>2026-04-27T11:05:47Z</time></trkpt><trkpt lat="45.9555826695423" lon="9.316472884208805"><ele>439.99999999999994</ele><time>2026-04-27T11:05:49Z</time></trkpt><trkpt lat="45.95556463230076" lon="9.316565688242795"><ele>440.0</ele><time>2026-04-27T11:05:54Z</time></trkpt><trkpt lat="45.955620467620484" lon="9.316611100451716"><ele>440.0</ele><time>2026-04-27T11:06:55.001Z</time></trkpt><trkpt lat="45.955667432132635" lon="9.316508271465793"><ele>440.0</ele><time>2026-04-27T11:07:31.001Z</time></trkpt><trkpt lat="45.955682310578176" lon="9.316410176727514"><ele>439.99999999999994</ele><time>2026-04-27T11:08:18.001Z</time></trkpt><trkpt lat="45.95557153927228" lon="9.316281024568932"><ele>440.0</ele><time>2026-04-27T11:08:20.001Z</time></trkpt><trkpt lat="45.95551785914633" lon="9.31612483071985"><ele>439.99999999999994</ele><time>2026-04-27T11:08:22.001Z</time></trkpt><trkpt lat="45.95545155012956" lon="9.315985318308678"><ele>440.0</ele><time>2026-04-27T11:08:24.001Z</time></trkpt><trkpt lat="45.955379315707695" lon="9.315883639586076"><ele>440.0</ele><time>2026-04-27T11:08:26.001Z</time></trkpt><trkpt lat="45.955322066644776" lon="9.315959627934534"><ele>440.0</ele><time>2026-04-27T11:08:29.001Z</time></trkpt><trkpt lat="45.95535045880498" lon="9.316069968738525"><ele>439.99999999999994</ele><time>2026-04-27T11:08:31.001Z</time></trkpt><trkpt lat="45.95534406933534" lon="9.31617104073478"><ele>440.0</ele><time>2026-04-27T11:08:33.001Z</time></trkpt><trkpt lat="45.9553122525235" lon="9.31626144791065"><ele>439.99999999999994</ele><time>2026-04-27T11:08:35.001Z</time></trkpt><trkpt lat="45.95523096109023" lon="9.31623096068397"><ele>440.0</ele><time>2026-04-27T11:08:37.001Z</time></trkpt><trkpt lat="45.955149684071515" lon="9.316132017249156"><ele>440.0</ele><time>2026-04-27T11:08:39.001Z</time></trkpt><trkpt lat="45.955090804794914" lon="9.31605104784474"><ele>440.0</ele><time>2026-04-27T11:08:41.001Z</time></trkpt><trkpt lat="45.955035710372215" lon="9.315973870908424"><ele>439.99999999999994</ele><time>2026-04-27T11:08:43.001Z</time></trkpt><trkpt lat="45.95498316167177" lon="9.315892006753005"><ele>440.0</ele><time>2026-04-27T11:08:45.001Z</time></trkpt><trkpt lat="45.95492109761009" lon="9.315788050715604"><ele>433.0</ele><time>2026-04-27T11:08:47.001Z</time></trkpt><trkpt lat="45.954864883682454" lon="9.315673827067828"><ele>426.0</ele><time>2026-04-27T11:08:50.001Z</time></trkpt><trkpt lat="45.95495803479589" lon="9.315436525105445"><ele>419.0</ele><time>2026-04-27T11:08:52.001Z</time></trkpt><trkpt lat="45.95491313435267" lon="9.31536225190876"><ele>412.0</ele><time>2026-04-27T11:08:53.001Z</time></trkpt><trkpt lat="45.954815526447945" lon="9.315317759400212"><ele>408.6</ele><time>2026-04-27T11:08:55.001Z</time></trkpt><trkpt lat="45.95472333148103" lon="9.315216256775054"><ele>405.20000000000005</ele><time>2026-04-27T11:08:56.001Z</time></trkpt><trkpt lat="45.954678808234355" lon="9.315143929609679"><ele>401.8</ele><time>2026-04-27T11:08:57.001Z</time></trkpt><trkpt lat="45.954649639726476" lon="9.314997837143368"><ele>398.4</ele><time>2026-04-27T11:08:59.001Z</time></trkpt><trkpt lat="45.95472534379722" lon="9.314888935783042"><ele>395.0</ele><time>2026-04-27T11:09:00.001Z</time></trkpt><trkpt lat="45.9547227953766" lon="9.314739440700436"><ele>395.0</ele><time>2026-04-27T11:09:02.001Z</time></trkpt><trkpt lat="45.95470191516903" lon="9.314638324483967"><ele>395.0</ele><time>2026-04-27T11:09:04.001Z</time></trkpt><trkpt lat="45.954572564283396" lon="9.314671629598546"><ele>395.0</ele><time>2026-04-27T11:09:13.001Z</time></trkpt><trkpt lat="45.95448835638845" lon="9.314777458681913"><ele>395.0</ele><time>2026-04-27T11:09:15.001Z</time></trkpt><trkpt lat="45.95443477701869" lon="9.314837248014442"><ele>395.0</ele><time>2026-04-27T11:09:18.001Z</time></trkpt><trkpt lat="45.954487547781426" lon="9.31473060138197"><ele>392.99999999999994</ele><time>2026-04-27T11:09:25.001Z</time></trkpt><trkpt lat="45.95456375802316" lon="9.314659299144981"><ele>391.0</ele><time>2026-04-27T11:09:27.001Z</time></trkpt><trkpt lat="45.954618702762254" lon="9.314566607702263"><ele>389.0</ele><time>2026-04-27T11:09:29.001Z</time></trkpt><trkpt lat="45.954661238492726" lon="9.314497098738462"><ele>387.0</ele><time>2026-04-27T11:09:31.001Z</time></trkpt><trkpt lat="45.95467882507103" lon="9.314353682559279"><ele>385.0</ele><time>2026-04-27T11:09:33.001Z</time></trkpt><trkpt lat="45.95469017362162" lon="9.314257080345456"><ele>383.0</ele><time>2026-04-27T11:09:34.001Z</time></trkpt><trkpt lat="45.954701548939155" lon="9.314117911065125"><ele>383.0</ele><time>2026-04-27T11:09:36.001Z</time></trkpt><trkpt lat="45.954661072956256" lon="9.313985401335119"><ele>383.0</ele><time>2026-04-27T11:09:38Z</time></trkpt><trkpt lat="45.954639898561354" lon="9.313809932009777"><ele>383.0</ele><time>2026-04-27T11:09:40Z</time></trkpt><trkpt lat="45.95463546970594" lon="9.313714394628251"><ele>383.0</ele><time>2026-04-27T11:09:41Z</time></trkpt><trkpt lat="45.95462820138987" lon="9.313616064189603"><ele>383.0</ele><time>2026-04-27T11:09:43Z</time></trkpt><trkpt lat="45.95443557810348" lon="9.313561975651904"><ele>383.1666666666667</ele><time>2026-04-27T11:09:53Z</time></trkpt><trkpt lat="45.9543563082933" lon="9.313546534878068"><ele>383.33333333333337</ele><time>2026-04-27T11:09:57Z</time></trkpt><trkpt lat="45.95427738905335" lon="9.313563127810108"><ele>383.5</ele><time>2026-04-27T11:10:00Z</time></trkpt><trkpt lat="45.9542216250562" lon="9.313624972223558"><ele>383.6666666666667</ele><time>2026-04-27T11:10:04Z</time></trkpt><trkpt lat="45.95412259972201" lon="9.313697988281906"><ele>383.8333333333333</ele><time>2026-04-27T11:10:07Z</time></trkpt><trkpt lat="45.954127213093415" lon="9.313803320190988"><ele>384.0</ele><time>2026-04-27T11:10:09Z</time></trkpt><trkpt lat="45.95415184896758" lon="9.313913041055686"><ele>381.99999999999994</ele><time>2026-04-27T11:10:29Z</time></trkpt><trkpt lat="45.95419536501477" lon="9.313798297043611"><ele>380.0</ele><time>2026-04-27T11:11:42Z</time></trkpt><trkpt lat="45.95424963003371" lon="9.31375029032081"><ele>378.0</ele><time>2026-04-27T11:11:56Z</time></trkpt><trkpt lat="45.95420803719229" lon="9.313675554574901"><ele>376.0</ele><time>2026-04-27T11:12:18Z</time></trkpt><trkpt lat="45.95413625675676" lon="9.313675040776044"><ele>374.0</ele><time>2026-04-27T11:12:29Z</time></trkpt><trkpt lat="45.95407634647102" lon="9.313705965838311"><ele>371.99999999999994</ele><time>2026-04-27T11:12:39Z</time></trkpt><trkpt lat="45.95401500274547" lon="9.313726999313857"><ele>370.0</ele><time>2026-04-27T11:12:49Z</time></trkpt><trkpt lat="45.953955055331875" lon="9.313691024150392"><ele>370.0</ele><time>2026-04-27T11:12:59Z</time></trkpt><trkpt lat="45.95402255741891" lon="9.313739215921142"><ele>370.0</ele><time>2026-04-27T11:13:22Z</time></trkpt><trkpt lat="45.95411746869216" lon="9.313735400797388"><ele>370.0</ele><time>2026-04-27T11:13:58Z</time></trkpt><trkpt lat="45.9541834223285" lon="9.313731378033664"><ele>370.0</ele><time>2026-04-27T11:14:08Z</time></trkpt><trkpt lat="45.954124317238254" lon="9.313791087334282"><ele>370.0</ele><time>2026-04-27T11:14:26Z</time></trkpt><trkpt lat="45.954167840851106" lon="9.31389353027212"><ele>370.0</ele><time>2026-04-27T11:14:48Z</time></trkpt><trkpt lat="45.95417541576278" lon="9.313986112279302"><ele>369.57142857142856</ele><time>2026-04-27T11:15:17Z</time></trkpt><trkpt lat="45.95415127549174" lon="9.314070238607881"><ele>369.1428571428571</ele><time>2026-04-27T11:15:23Z</time></trkpt><trkpt lat="45.954210720676045" lon="9.314118022681344"><ele>368.71428571428567</ele><time>2026-04-27T11:15:36Z</time></trkpt><trkpt lat="45.95420630005214" lon="9.314026844512023"><ele>368.2857142857143</ele><time>2026-04-27T11:15:51Z</time></trkpt><trkpt lat="45.9541832662868" lon="9.313938594508693"><ele>367.8571428571429</ele><time>2026-04-27T11:15:58Z</time></trkpt><trkpt lat="45.95421016669309" lon="9.313847145740434"><ele>367.4285714285714</ele><time>2026-04-27T11:16:06Z</time></trkpt><trkpt lat="45.95427791089307" lon="9.313865770251416"><ele>367.0</ele><time>2026-04-27T11:18:21Z</time></trkpt><trkpt lat="45.95423667489968" lon="9.31379633670352"><ele>367.0</ele><time>2026-04-27T11:18:55Z</time></trkpt><trkpt lat="45.95423466422672" lon="9.313681735383575"><ele>367.0</ele><time>2026-04-27T11:20:20Z</time></trkpt><trkpt lat="45.95417004113371" lon="9.313648413490988"><ele>367.0</ele><time>2026-04-27T11:21:46Z</time></trkpt><trkpt lat="45.954084758731774" lon="9.313669079970776"><ele>367.0</ele><time>2026-04-27T11:22:45Z</time></trkpt><trkpt lat="45.954022133779446" lon="9.31367979767065"><ele>367.0</ele><time>2026-04-27T11:22:48Z</time></trkpt><trkpt lat="45.95393259071364" lon="9.313686718527979"><ele>367.0</ele><time>2026-04-27T11:22:51Z</time></trkpt><trkpt lat="45.953935253763476" lon="9.313571378716818"><ele>367.5</ele><time>2026-04-27T11:24:04Z</time></trkpt><trkpt lat="45.95395085493453" lon="9.313450239465325"><ele>368.0</ele><time>2026-04-27T11:24:07Z</time></trkpt><trkpt lat="45.953935727128716" lon="9.31335479736022"><ele>368.5</ele><time>2026-04-27T11:24:10Z</time></trkpt><trkpt lat="45.95390499940306" lon="9.313232338952805"><ele>369.0</ele><time>2026-04-27T11:24:13Z</time></trkpt><trkpt lat="45.953868073041505" lon="9.313129112893417"><ele>369.5</ele><time>2026-04-27T11:24:15Z</time></trkpt><trkpt lat="45.95386902999633" lon="9.313028828340112"><ele>370.0</ele><time>2026-04-27T11:24:18Z</time></trkpt><trkpt lat="45.95383899614875" lon="9.312921510932163"><ele>367.16666666666663</ele><time>2026-04-27T11:24:22Z</time></trkpt><trkpt lat="45.953771773122114" lon="9.312873567667868"><ele>364.3333333333333</ele><time>2026-04-27T11:24:26Z</time></trkpt><trkpt lat="45.95368999085004" lon="9.312893815910071"><ele>361.5</ele><time>2026-04-27T11:24:28Z</time></trkpt><trkpt lat="45.953624673191285" lon="9.3128933815138"><ele>358.6666666666667</ele><time>2026-04-27T11:24:30Z</time></trkpt><trkpt lat="45.95354708472248" lon="9.312868078240552"><ele>355.83333333333337</ele><time>2026-04-27T11:24:33Z</time></trkpt><trkpt lat="45.95348308623033" lon="9.312826659066483"><ele>353.0</ele><time>2026-04-27T11:24:36Z</time></trkpt><trkpt lat="45.95344076364994" lon="9.312715794116789"><ele>353.0</ele><time>2026-04-27T11:24:39Z</time></trkpt><trkpt lat="45.9534189676654" lon="9.312617098444832"><ele>353.0</ele><time>2026-04-27T11:24:42Z</time></trkpt><trkpt lat="45.953387367257896" lon="9.312529771010972"><ele>353.0</ele><time>2026-04-27T11:24:46Z</time></trkpt><trkpt lat="45.953347683015394" lon="9.312448265953568"><ele>353.0</ele><time>2026-04-27T11:24:48Z</time></trkpt><trkpt lat="45.953311705901015" lon="9.312365792386133"><ele>353.0</ele><time>2026-04-27T11:24:51Z</time></trkpt><trkpt lat="45.95330013079887" lon="9.312263022002995"><ele>353.0</ele><time>2026-04-27T11:24:53Z</time></trkpt><trkpt lat="45.95334461409445" lon="9.312156518513534"><ele>353.0</ele><time>2026-04-27T11:24:55Z</time></trkpt><trkpt lat="45.95333589235474" lon="9.312042917780547"><ele>350.4285714285714</ele><time>2026-04-27T11:24:57Z</time></trkpt><trkpt lat="45.953328396936826" lon="9.31192791377381"><ele>347.8571428571429</ele><time>2026-04-27T11:25:02Z</time></trkpt><trkpt lat="45.95331753528782" lon="9.311826364730289"><ele>345.2857142857143</ele><time>2026-04-27T11:25:06Z</time></trkpt><trkpt lat="45.95329480616543" lon="9.311741607768349"><ele>342.71428571428567</ele><time>2026-04-27T11:25:08Z</time></trkpt><trkpt lat="45.95326256197054" lon="9.311642062763312"><ele>340.1428571428571</ele><time>2026-04-27T11:25:10Z</time></trkpt><trkpt lat="45.9532316790689" lon="9.31156239722027"><ele>337.57142857142856</ele><time>2026-04-27T11:25:13Z</time></trkpt><trkpt lat="45.95318314345276" lon="9.311476187071925"><ele>335.0</ele><time>2026-04-27T11:25:15Z</time></trkpt><trkpt lat="45.953128100436636" lon="9.311427268119735"><ele>332.6</ele><time>2026-04-27T11:25:19Z</time></trkpt><trkpt lat="45.9530613536569" lon="9.311305970077811"><ele>330.2</ele><time>2026-04-27T11:25:22Z</time></trkpt><trkpt lat="45.953017934796044" lon="9.311214709732125"><ele>327.79999999999995</ele><time>2026-04-27T11:25:25Z</time></trkpt><trkpt lat="45.95295175143208" lon="9.311161941019439"><ele>325.4</ele><time>2026-04-27T11:25:27Z</time></trkpt><trkpt lat="45.9528440531128" lon="9.311021536269342"><ele>323.0</ele><time>2026-04-27T11:25:29Z</time></trkpt><trkpt lat="45.952788155184734" lon="9.31094106597734"><ele>323.0</ele><time>2026-04-27T11:25:30Z</time></trkpt><trkpt lat="45.95274796348243" lon="9.310854767760334"><ele>323.0</ele><time>2026-04-27T11:25:32Z</time></trkpt><trkpt lat="45.95268786015653" lon="9.310779314395221"><ele>323.0</ele><time>2026-04-27T11:25:34Z</time></trkpt><trkpt lat="45.952642249484555" lon="9.310661366765817"><ele>323.0</ele><time>2026-04-27T11:25:36Z</time></trkpt><trkpt lat="45.95259074120016" lon="9.310509829349296"><ele>323.0</ele><time>2026-04-27T11:25:39Z</time></trkpt><trkpt lat="45.952574312868855" lon="9.310416431783874"><ele>323.0</ele><time>2026-04-27T11:25:41Z</time></trkpt><trkpt lat="45.952547347614484" lon="9.310283014786085"><ele>319.83333333333337</ele><time>2026-04-27T11:25:44Z</time></trkpt><trkpt lat="45.95247369987891" lon="9.310271922291053"><ele>316.6666666666667</ele><time>2026-04-27T11:25:47Z</time></trkpt><trkpt lat="45.95241984820721" lon="9.310353912365814"><ele>313.5</ele><time>2026-04-27T11:25:50Z</time></trkpt><trkpt lat="45.95236120017221" lon="9.310421998913618"><ele>310.3333333333333</ele><time>2026-04-27T11:25:52Z</time></trkpt><trkpt lat="45.95233200476966" lon="9.310523602933495"><ele>307.16666666666663</ele><time>2026-04-27T11:25:54Z</time></trkpt><trkpt lat="45.9523339110673" lon="9.31064156139155"><ele>304.0</ele><time>2026-04-27T11:25:56Z</time></trkpt><trkpt lat="45.95235933777092" lon="9.310788032344307"><ele>304.0</ele><time>2026-04-27T11:25:58Z</time></trkpt><trkpt lat="45.95234678601311" lon="9.31092468677929"><ele>304.0</ele><time>2026-04-27T11:26:00Z</time></trkpt><trkpt lat="45.95230298690092" lon="9.311084250724548"><ele>304.0</ele><time>2026-04-27T11:26:02Z</time></trkpt><trkpt lat="45.95224923527774" lon="9.311215404323374"><ele>304.0</ele><time>2026-04-27T11:26:04Z</time></trkpt><trkpt lat="45.95221056697126" lon="9.311319531696203"><ele>304.0</ele><time>2026-04-27T11:26:07Z</time></trkpt><trkpt lat="45.95213514751258" lon="9.31139424943628"><ele>304.0</ele><time>2026-04-27T11:26:10Z</time></trkpt><trkpt lat="45.952065826286976" lon="9.311437311625074"><ele>304.0</ele><time>2026-04-27T11:26:14Z</time></trkpt><trkpt lat="45.951998009005294" lon="9.31145413461921"><ele>304.0</ele><time>2026-04-27T11:26:16Z</time></trkpt><trkpt lat="45.95191848676148" lon="9.311409158388162"><ele>304.0</ele><time>2026-04-27T11:26:18Z</time></trkpt><trkpt lat="45.95184645367924" lon="9.311316642718229"><ele>304.0</ele><time>2026-04-27T11:26:20Z</time></trkpt><trkpt lat="45.95177191023103" lon="9.311214791010537"><ele>304.0</ele><time>2026-04-27T11:26:22Z</time></trkpt><trkpt lat="45.95171098442544" lon="9.311098251013297"><ele>304.4</ele><time>2026-04-27T11:26:24Z</time></trkpt><trkpt lat="45.95167712367957" lon="9.310938868026739"><ele>304.79999999999995</ele><time>2026-04-27T11:26:26Z</time></trkpt><trkpt lat="45.951630593515226" lon="9.31079819625659"><ele>305.20000000000005</ele><time>2026-04-27T11:26:28Z</time></trkpt><trkpt lat="45.95157443415297" lon="9.310668962371324"><ele>305.6</ele><time>2026-04-27T11:26:30Z</time></trkpt><trkpt lat="45.951484113270325" lon="9.310707125221414"><ele>306.0</ele><time>2026-04-27T11:26:55Z</time></trkpt><trkpt lat="45.95149938929583" lon="9.31061186206873"><ele>304.6</ele><time>2026-04-27T11:28:53Z</time></trkpt><trkpt lat="45.951435992206434" lon="9.310499669899194"><ele>303.20000000000005</ele><time>2026-04-27T11:28:56Z</time></trkpt><trkpt lat="45.95139422164348" lon="9.310402114818745"><ele>301.79999999999995</ele><time>2026-04-27T11:28:58Z</time></trkpt><trkpt lat="45.95130797150733" lon="9.31033834088838"><ele>300.4</ele><time>2026-04-27T11:29:01Z</time></trkpt><trkpt lat="45.9511965893159" lon="9.310372127613332"><ele>299.0</ele><time>2026-04-27T11:29:03Z</time></trkpt><trkpt lat="45.95112856147318" lon="9.310303329739464"><ele>299.0</ele><time>2026-04-27T11:29:05Z</time></trkpt><trkpt lat="45.951049060137144" lon="9.310288924346535"><ele>299.0</ele><time>2026-04-27T11:29:07Z</time></trkpt><trkpt lat="45.95099747466959" lon="9.31034388261131"><ele>299.0</ele><time>2026-04-27T11:29:08Z</time></trkpt><trkpt lat="45.950917904914036" lon="9.310368819882664"><ele>299.0</ele><time>2026-04-27T11:29:10Z</time></trkpt><trkpt lat="45.9508241453223" lon="9.310376788339429"><ele>299.0</ele><time>2026-04-27T11:29:12Z</time></trkpt><trkpt lat="45.95071258609832" lon="9.310322260208956"><ele>299.0</ele><time>2026-04-27T11:29:14Z</time></trkpt><trkpt lat="45.950595136441144" lon="9.31026584170356"><ele>302.1666666666667</ele><time>2026-04-27T11:29:16Z</time></trkpt><trkpt lat="45.950527375562906" lon="9.310250901614074"><ele>305.33333333333337</ele><time>2026-04-27T11:29:17Z</time></trkpt><trkpt lat="45.95046096341302" lon="9.310209259018857"><ele>308.5</ele><time>2026-04-27T11:29:18Z</time></trkpt><trkpt lat="45.950358170014646" lon="9.310163131088936"><ele>311.6666666666667</ele><time>2026-04-27T11:29:20Z</time></trkpt><trkpt lat="45.95022954037539" lon="9.310134061203867"><ele>314.8333333333333</ele><time>2026-04-27T11:29:22Z</time></trkpt><trkpt lat="45.95015963862048" lon="9.310128373466165"><ele>318.0</ele><time>2026-04-27T11:29:23Z</time></trkpt><trkpt lat="45.95004864804501" lon="9.310152734069245"><ele>319.1666666666667</ele><time>2026-04-27T11:29:25Z</time></trkpt><trkpt lat="45.95000876854062" lon="9.31024500791063"><ele>320.3333333333333</ele><time>2026-04-27T11:29:26Z</time></trkpt><trkpt lat="45.949976841819435" lon="9.310338996823413"><ele>321.5</ele><time>2026-04-27T11:29:27Z</time></trkpt><trkpt lat="45.949949338868855" lon="9.310447159935133"><ele>322.66666666666663</ele><time>2026-04-27T11:29:28Z</time></trkpt><trkpt lat="45.94990098566353" lon="9.310549639943453"><ele>323.8333333333333</ele><time>2026-04-27T11:29:29Z</time></trkpt><trkpt lat="45.94987024210795" lon="9.310659134447075"><ele>325.0</ele><time>2026-04-27T11:29:30Z</time></trkpt><trkpt lat="45.94985316348068" lon="9.310776826071459"><ele>325.66666666666663</ele><time>2026-04-27T11:29:31Z</time></trkpt><trkpt lat="45.94982786817469" lon="9.310888719626016"><ele>326.3333333333333</ele><time>2026-04-27T11:29:32Z</time></trkpt><trkpt lat="45.94980337718804" lon="9.311008049567532"><ele>327.0</ele><time>2026-04-27T11:29:33Z</time></trkpt><trkpt lat="45.9497743751674" lon="9.311104787209612"><ele>327.6666666666667</ele><time>2026-04-27T11:29:34Z</time></trkpt><trkpt lat="45.94972801962648" lon="9.311202326860972"><ele>328.33333333333337</ele><time>2026-04-27T11:29:35Z</time></trkpt><trkpt lat="45.94967185231113" lon="9.311295791242795"><ele>329.0</ele><time>2026-04-27T11:29:36Z</time></trkpt><trkpt lat="45.94962894962689" lon="9.311382262945228"><ele>330.0</ele><time>2026-04-27T11:29:37Z</time></trkpt><trkpt lat="45.949587370375774" lon="9.311457708614556"><ele>331.0</ele><time>2026-04-27T11:29:38Z</time></trkpt><trkpt lat="45.94949511826291" lon="9.31151685429445"><ele>332.0</ele><time>2026-04-27T11:29:40Z</time></trkpt><trkpt lat="45.949380029294616" lon="9.311442133561915"><ele>333.0</ele><time>2026-04-27T11:29:42Z</time></trkpt><trkpt lat="45.94931020996051" lon="9.311414218869677"><ele>334.0</ele><time>2026-04-27T11:29:43Z</time></trkpt><trkpt lat="45.94923866285568" lon="9.31140916289592"><ele>335.0</ele><time>2026-04-27T11:29:44Z</time></trkpt><trkpt lat="45.949176893398366" lon="9.311359046481924"><ele>336.6666666666667</ele><time>2026-04-27T11:29:45Z</time></trkpt><trkpt lat="45.94910900000133" lon="9.311330949163992"><ele>338.33333333333337</ele><time>2026-04-27T11:29:46Z</time></trkpt><trkpt lat="45.94897893186861" lon="9.311285070981409"><ele>340.0</ele><time>2026-04-27T11:29:48Z</time></trkpt><trkpt lat="45.94891071619699" lon="9.311284176836807"><ele>341.6666666666667</ele><time>2026-04-27T11:29:49Z</time></trkpt><trkpt lat="45.94883175260032" lon="9.311296164712997"><ele>343.3333333333333</ele><time>2026-04-27T11:29:52Z</time></trkpt><trkpt lat="45.948753734666575" lon="9.311318059415823"><ele>345.0</ele><time>2026-04-27T11:29:54Z</time></trkpt><trkpt lat="45.94868976564524" lon="9.3113293376163"><ele>345.0</ele><time>2026-04-27T11:29:55Z</time></trkpt><trkpt lat="45.94862381936975" lon="9.311299438597239"><ele>345.0</ele><time>2026-04-27T11:29:56Z</time></trkpt><trkpt lat="45.94854526728717" lon="9.311305339756371"><ele>345.0</ele><time>2026-04-27T11:29:57Z</time></trkpt><trkpt lat="45.94847099831603" lon="9.311288688764522"><ele>345.0</ele><time>2026-04-27T11:29:58Z</time></trkpt><trkpt lat="45.94840489319237" lon="9.311274075133229"><ele>345.0</ele><time>2026-04-27T11:29:59Z</time></trkpt><trkpt lat="45.94830332527141" lon="9.311256645694094"><ele>345.0</ele><time>2026-04-27T11:30:01Z</time></trkpt><trkpt lat="45.94822566174211" lon="9.311254245147234"><ele>345.8</ele><time>2026-04-27T11:30:03Z</time></trkpt><trkpt lat="45.94812486933379" lon="9.311367264028993"><ele>346.6</ele><time>2026-04-27T11:30:05Z</time></trkpt><trkpt lat="45.948071363448975" lon="9.311421850467093"><ele>347.4</ele><time>2026-04-27T11:30:06Z</time></trkpt><trkpt lat="45.948004913316986" lon="9.311470268716988"><ele>348.2</ele><time>2026-04-27T11:30:07Z</time></trkpt><trkpt lat="45.947911884711644" lon="9.311581231141078"><ele>349.0</ele><time>2026-04-27T11:30:09Z</time></trkpt><trkpt lat="45.94785766816519" lon="9.311754410517917"><ele>351.0</ele><time>2026-04-27T11:30:11Z</time></trkpt><trkpt lat="45.947833717599266" lon="9.311852063781755"><ele>353.0</ele><time>2026-04-27T11:30:12Z</time></trkpt><trkpt lat="45.947821451354066" lon="9.311943184996021"><ele>355.0</ele><time>2026-04-27T11:30:13Z</time></trkpt><trkpt lat="45.94780890445073" lon="9.312099113355526"><ele>357.0</ele><time>2026-04-27T11:30:15Z</time></trkpt><trkpt lat="45.94779500198422" lon="9.312201431161192"><ele>359.0</ele><time>2026-04-27T11:30:16.999Z</time></trkpt><trkpt lat="45.94771755984337" lon="9.312243229709747"><ele>361.0</ele><time>2026-04-27T11:30:18.999Z</time></trkpt><trkpt lat="45.94773241518756" lon="9.312380653897153"><ele>363.5</ele><time>2026-04-27T11:30:20.012Z</time></trkpt><trkpt lat="45.94783907764827" lon="9.312590502846511"><ele>366.0</ele><time>2026-04-27T11:30:22Z</time></trkpt><trkpt lat="45.94770043917943" lon="9.312503190120973"><ele>368.5</ele><time>2026-04-27T11:30:25Z</time></trkpt><trkpt lat="45.94768119705997" lon="9.312344165941388"><ele>371.0</ele><time>2026-04-27T11:30:26Z</time></trkpt><trkpt lat="45.94753739226635" lon="9.312299268791703"><ele>371.0</ele><time>2026-04-27T11:30:28Z</time></trkpt><trkpt lat="45.947431656625504" lon="9.312271526709331"><ele>371.0</ele><time>2026-04-27T11:30:30Z</time></trkpt><trkpt lat="45.94733770850428" lon="9.312249456226972"><ele>371.0</ele><time>2026-04-27T11:30:32Z</time></trkpt><trkpt lat="45.94721667057222" lon="9.31222609335852"><ele>371.0</ele><time>2026-04-27T11:30:34Z</time></trkpt><trkpt lat="45.94709173340134" lon="9.312205270720028"><ele>371.0</ele><time>2026-04-27T11:30:36Z</time></trkpt><trkpt lat="45.94702596444005" lon="9.312194091094504"><ele>371.0</ele><time>2026-04-27T11:30:37Z</time></trkpt><trkpt lat="45.94692122821347" lon="9.312182836499455"><ele>371.0</ele><time>2026-04-27T11:30:39Z</time></trkpt><trkpt lat="45.9468019497931" lon="9.312176144733408"><ele>371.0</ele><time>2026-04-27T11:30:41Z</time></trkpt><trkpt lat="45.946742256045766" lon="9.312479837849112"><ele>371.0</ele><time>2026-04-27T11:31:06Z</time></trkpt><trkpt lat="45.94684775710481" lon="9.312492336344249"><ele>371.0</ele><time>2026-04-27T11:31:47Z</time></trkpt><trkpt lat="45.946915681099654" lon="9.31250957356182"><ele>371.0</ele><time>2026-04-27T11:31:49Z</time></trkpt><trkpt lat="45.94705753199913" lon="9.31251160372749"><ele>371.0</ele><time>2026-04-27T11:31:54Z</time></trkpt><trkpt lat="45.947133767359475" lon="9.312492815996675"><ele>371.0</ele><time>2026-04-27T11:31:56Z</time></trkpt><trkpt lat="45.94723939389503" lon="9.312538075044914"><ele>371.0</ele><time>2026-04-27T11:31:58Z</time></trkpt><trkpt lat="45.94736079374721" lon="9.312561168822908"><ele>371.0</ele><time>2026-04-27T11:32:00Z</time></trkpt><trkpt lat="45.94745557147418" lon="9.31259704504663"><ele>371.0</ele><time>2026-04-27T11:32:02Z</time></trkpt><trkpt lat="45.947520115247464" lon="9.312590188362657"><ele>371.0</ele><time>2026-04-27T11:32:04Z</time></trkpt><trkpt lat="45.94758295488422" lon="9.312569758637357"><ele>371.0</ele><time>2026-04-27T11:32:12Z</time></trkpt><trkpt lat="45.94771187566168" lon="9.312511629940591"><ele>372.25</ele><time>2026-04-27T11:32:18Z</time></trkpt><trkpt lat="45.947817230599" lon="9.312353668199927"><ele>373.5</ele><time>2026-04-27T11:32:29Z</time></trkpt><trkpt lat="45.94784117334875" lon="9.312146170170404"><ele>374.75</ele><time>2026-04-27T11:32:31Z</time></trkpt><trkpt lat="45.94782493287595" lon="9.31204943920119"><ele>376.0</ele><time>2026-04-27T11:32:38Z</time></trkpt><trkpt lat="45.94782175715977" lon="9.312209365421449"><ele>376.0</ele><time>2026-04-27T11:32:45Z</time></trkpt><trkpt lat="45.94781248695154" lon="9.312317427718797"><ele>376.0</ele><time>2026-04-27T11:32:47Z</time></trkpt><trkpt lat="45.9478056192581" lon="9.312422415101704"><ele>376.0</ele><time>2026-04-27T11:32:49.019Z</time></trkpt><trkpt lat="45.947816108883146" lon="9.312545051540893"><ele>376.0</ele><time>2026-04-27T11:32:51Z</time></trkpt><trkpt lat="45.947728536920906" lon="9.312487974768274"><ele>376.0</ele><time>2026-04-27T11:32:53Z</time></trkpt><trkpt lat="45.947641629500474" lon="9.312500969945676"><ele>376.0</ele><time>2026-04-27T11:32:55Z</time></trkpt><trkpt lat="45.947578262357936" lon="9.312507235484606"><ele>375.16666666666663</ele><time>2026-04-27T11:32:57Z</time></trkpt><trkpt lat="45.94751406539323" lon="9.312493504904424"><ele>374.3333333333333</ele><time>2026-04-27T11:33:00Z</time></trkpt><trkpt lat="45.947429448687245" lon="9.312552840774094"><ele>373.5</ele><time>2026-04-27T11:33:03Z</time></trkpt><trkpt lat="45.94739329438701" lon="9.312673328335926"><ele>372.6666666666667</ele><time>2026-04-27T11:33:05Z</time></trkpt><trkpt lat="45.94734579372686" lon="9.312786994045501"><ele>371.83333333333337</ele><time>2026-04-27T11:33:07Z</time></trkpt><trkpt lat="45.947285502380325" lon="9.312892309196467"><ele>371.0</ele><time>2026-04-27T11:33:09Z</time></trkpt><trkpt lat="45.947232008060986" lon="9.312987717577522"><ele>373.33333333333337</ele><time>2026-04-27T11:33:11Z</time></trkpt><trkpt lat="45.94718797891064" lon="9.313087270619217"><ele>375.6666666666667</ele><time>2026-04-27T11:33:13Z</time></trkpt><trkpt lat="45.94714153746829" lon="9.313151421103116"><ele>378.0</ele><time>2026-04-27T11:33:15Z</time></trkpt><trkpt lat="45.947072277533394" lon="9.313182484591035"><ele>380.33333333333337</ele><time>2026-04-27T11:33:17Z</time></trkpt><trkpt lat="45.94697610493666" lon="9.313279982058479"><ele>382.6666666666667</ele><time>2026-04-27T11:33:19Z</time></trkpt><trkpt lat="45.94693411792694" lon="9.31338448881957"><ele>385.0</ele><time>2026-04-27T11:33:21Z</time></trkpt><trkpt lat="45.94687318062482" lon="9.313487994228362"><ele>385.00000000000006</ele><time>2026-04-27T11:33:23Z</time></trkpt><trkpt lat="45.94681574423287" lon="9.313579868837731"><ele>385.0</ele><time>2026-04-27T11:33:25Z</time></trkpt><trkpt lat="45.94676206560407" lon="9.313692226574082"><ele>385.0</ele><time>2026-04-27T11:33:27Z</time></trkpt><trkpt lat="45.94671101302975" lon="9.313773065537486"><ele>385.0</ele><time>2026-04-27T11:33:29Z</time></trkpt><trkpt lat="45.94665239547085" lon="9.313808735896407"><ele>385.00000000000006</ele><time>2026-04-27T11:33:31Z</time></trkpt><trkpt lat="45.94658488142993" lon="9.313878753555827"><ele>385.0</ele><time>2026-04-27T11:33:33Z</time></trkpt><trkpt lat="45.94653488373542" lon="9.313944658108236"><ele>387.33333333333337</ele><time>2026-04-27T11:33:35Z</time></trkpt><trkpt lat="45.946492326317724" lon="9.314017894236374"><ele>389.6666666666667</ele><time>2026-04-27T11:33:36Z</time></trkpt><trkpt lat="45.946435495238404" lon="9.314125466848608"><ele>392.0</ele><time>2026-04-27T11:33:38Z</time></trkpt><trkpt lat="45.94637382242968" lon="9.314197129956783"><ele>394.33333333333337</ele><time>2026-04-27T11:33:40Z</time></trkpt><trkpt lat="45.94632101445571" lon="9.314272002527117"><ele>396.6666666666667</ele><time>2026-04-27T11:33:42Z</time></trkpt><trkpt lat="45.94624525953039" lon="9.314285738229954"><ele>399.0</ele><time>2026-04-27T11:33:44Z</time></trkpt><trkpt lat="45.946171847664836" lon="9.314298373923897"><ele>399.0</ele><time>2026-04-27T11:33:45Z</time></trkpt><trkpt lat="45.94614699220589" lon="9.314382644362977"><ele>399.0</ele><time>2026-04-27T11:33:51Z</time></trkpt><trkpt lat="45.94605939202009" lon="9.314421098149145"><ele>399.0</ele><time>2026-04-27T11:35:36Z</time></trkpt><trkpt lat="45.94597122657878" lon="9.3144647329004"><ele>399.0</ele><time>2026-04-27T11:35:39Z</time></trkpt><trkpt lat="45.94595944878202" lon="9.314565499472781"><ele>399.0</ele><time>2026-04-27T11:35:41Z</time></trkpt><trkpt lat="45.945976625459934" lon="9.314694255988309"><ele>399.0</ele><time>2026-04-27T11:35:44Z</time></trkpt><trkpt lat="45.94597730517834" lon="9.314828357679959"><ele>401.42857142857144</ele><time>2026-04-27T11:35:47Z</time></trkpt><trkpt lat="45.94598831318762" lon="9.31494074818865"><ele>403.8571428571429</ele><time>2026-04-27T11:35:49Z</time></trkpt><trkpt lat="45.945964173077584" lon="9.315027942180818"><ele>406.2857142857143</ele><time>2026-04-27T11:35:52Z</time></trkpt><trkpt lat="45.945890000404525" lon="9.315107065626606"><ele>408.7142857142857</ele><time>2026-04-27T11:35:54Z</time></trkpt><trkpt lat="45.94587582895628" lon="9.315201917653413"><ele>411.14285714285717</ele><time>2026-04-27T11:35:56Z</time></trkpt><trkpt lat="45.94584740947673" lon="9.31528805802135"><ele>413.57142857142856</ele><time>2026-04-27T11:35:57Z</time></trkpt><trkpt lat="45.94585435546033" lon="9.315391213984494"><ele>416.0</ele><time>2026-04-27T11:35:59Z</time></trkpt><trkpt lat="45.94582209845576" lon="9.315489296129746"><ele>417.3333333333333</ele><time>2026-04-27T11:36:02Z</time></trkpt><trkpt lat="45.94573569252745" lon="9.31554853041048"><ele>418.66666666666663</ele><time>2026-04-27T11:36:05Z</time></trkpt><trkpt lat="45.94566694425126" lon="9.315623638011509"><ele>420.0</ele><time>2026-04-27T11:36:09Z</time></trkpt><trkpt lat="45.94560447446669" lon="9.31569796894744"><ele>421.33333333333337</ele><time>2026-04-27T11:36:12Z</time></trkpt><trkpt lat="45.9455178084694" lon="9.315775773977245"><ele>422.6666666666667</ele><time>2026-04-27T11:36:14Z</time></trkpt><trkpt lat="45.945466698680086" lon="9.315863768298803"><ele>424.0</ele><time>2026-04-27T11:36:20Z</time></trkpt><trkpt lat="45.94539790367116" lon="9.315856253364599"><ele>426.6666666666667</ele><time>2026-04-27T11:36:23Z</time></trkpt><trkpt lat="45.945317808486344" lon="9.315879159023643"><ele>429.33333333333337</ele><time>2026-04-27T11:36:28Z</time></trkpt><trkpt lat="45.94529794478474" lon="9.31599383875981"><ele>432.0</ele><time>2026-04-27T11:36:30Z</time></trkpt><trkpt lat="45.94521968228698" lon="9.316068112724274"><ele>434.66666666666663</ele><time>2026-04-27T11:36:33Z</time></trkpt><trkpt lat="45.94519547598642" lon="9.316158097744836"><ele>437.3333333333333</ele><time>2026-04-27T11:36:35Z</time></trkpt><trkpt lat="45.9451635442118" lon="9.316237095506354"><ele>440.0</ele><time>2026-04-27T11:36:37Z</time></trkpt><trkpt lat="45.94513785793404" lon="9.316324658252352"><ele>440.0</ele><time>2026-04-27T11:36:39Z</time></trkpt><trkpt lat="45.94506588474135" lon="9.316379573256519"><ele>440.0</ele><time>2026-04-27T11:36:41Z</time></trkpt><trkpt lat="45.94501532212091" lon="9.316459757596066"><ele>469.0</ele><time>2026-04-27T11:36:45Z</time></trkpt><trkpt lat="45.94495407222061" lon="9.316543552526463"><ele>469.0</ele><time>2026-04-27T11:38:24Z</time></trkpt><trkpt lat="45.94492229095448" lon="9.316676792403513"><ele>469.0</ele><time>2026-04-27T11:38:30Z</time></trkpt><trkpt lat="45.944957522104836" lon="9.316555585397715"><ele>469.0</ele><time>2026-04-27T11:46:03Z</time></trkpt></trkseg></trk></gpx>